createdAt,value
2024-04-10T00:01:19.000Z,10.73
2024-04-10T00:03:49.933Z,9.70
2024-04-10T00:06:21.041Z,9.40
2024-04-10T00:08:51.813Z,14.40
2024-04-10T00:11:25.161Z,9.38
2024-04-10T00:13:56.895Z,13.38
2024-04-10T00:16:27.669Z,8.63
2024-04-10T00:18:58.749Z,10.63
2024-04-10T00:21:34.763Z,13.93
2024-04-10T00:24:05.559Z,14.48
2024-04-10T00:26:36.087Z,21.50
2024-04-10T00:29:12.994Z,12.88
2024-04-10T00:31:44.277Z,13.70
2024-04-10T00:34:15.283Z,13.25
2024-04-10T00:36:46.290Z,13.30
2024-04-10T00:39:17.932Z,23.83
2024-04-10T00:41:48.883Z,20.77
2024-04-10T00:44:21.324Z,12.77
2024-04-10T00:46:52.692Z,12.55
2024-04-10T00:49:23.857Z,11.13
2024-04-10T00:51:55.110Z,12.20
2024-04-10T00:54:26.963Z,9.00
2024-04-10T00:56:57.750Z,16.00
2024-04-10T00:59:28.450Z,11.52
2024-04-10T01:02:01.230Z,9.00
2024-04-10T01:04:31.909Z,9.02
2024-04-10T01:07:02.656Z,9.75
2024-04-10T01:09:33.267Z,10.70
2024-04-10T01:12:03.810Z,7.90
2024-04-10T01:14:35.281Z,11.57
2024-04-10T01:17:06.519Z,10.32
2024-04-10T01:19:37.440Z,8.65
2024-04-10T01:22:07.908Z,9.23
2024-04-10T01:24:39.012Z,10.45
2024-04-10T01:27:10.354Z,9.23
2024-04-10T01:29:41.053Z,12.52
2024-04-10T01:32:11.961Z,9.02
2024-04-10T01:34:42.675Z,9.15
2024-04-10T01:37:13.244Z,10.18
2024-04-10T01:39:43.789Z,8.27
2024-04-10T01:42:14.329Z,9.43
2024-04-10T01:44:45.032Z,9.45
2024-04-10T01:47:16.203Z,9.82
2024-04-10T01:49:47.010Z,11.07
2024-04-10T01:52:17.877Z,8.48
2024-04-10T01:54:49.240Z,8.45
2024-04-10T01:57:19.999Z,8.90
2024-04-10T01:59:51.570Z,10.63
2024-04-10T02:02:22.519Z,10.95
2024-04-10T02:04:53.578Z,9.55
2024-04-10T02:07:24.163Z,9.88
2024-04-10T02:09:55.065Z,9.63
2024-04-10T02:12:25.738Z,8.65
2024-04-10T02:15:00.352Z,10.17
2024-04-10T02:17:32.933Z,10.25
2024-04-10T02:20:04.073Z,9.13
2024-04-10T02:22:35.624Z,10.60
2024-04-10T02:25:06.534Z,10.85
2024-04-10T02:27:37.442Z,9.77
2024-04-10T02:30:09.266Z,9.95
2024-04-10T02:32:40.155Z,13.07
2024-04-10T02:35:11.096Z,10.17
2024-04-10T02:37:41.940Z,10.60
2024-04-10T02:40:12.744Z,15.43
2024-04-10T02:42:54.013Z,9.75
2024-04-10T02:45:24.597Z,10.37
2024-04-10T02:47:55.639Z,9.50
2024-04-10T02:50:26.451Z,16.05
2024-04-10T02:52:57.104Z,11.18
2024-04-10T02:55:30.261Z,10.32
2024-04-10T02:58:00.956Z,12.17
2024-04-10T03:00:33.143Z,11.02
2024-04-10T03:03:04.417Z,9.98
2024-04-10T03:05:35.341Z,9.52
2024-04-10T03:08:07.550Z,10.82
2024-04-10T03:10:38.846Z,10.13
2024-04-10T03:13:12.667Z,10.83
2024-04-10T03:15:46.810Z,9.55
2024-04-10T03:18:17.997Z,10.80
2024-04-10T03:20:48.875Z,13.85
2024-04-10T03:23:20.093Z,10.80
2024-04-10T03:25:51.373Z,10.13
2024-04-10T03:28:22.295Z,11.13
2024-04-10T03:30:55.007Z,11.30
2024-04-10T03:33:29.121Z,11.80
2024-04-10T03:36:00.386Z,11.50
2024-04-10T03:38:31.092Z,13.70
2024-04-10T03:41:01.937Z,11.60
2024-04-10T03:43:33.825Z,11.10
2024-04-10T03:46:08.717Z,10.55
2024-04-10T03:48:41.035Z,12.02
2024-04-10T03:51:12.215Z,10.35
2024-04-10T03:53:43.034Z,13.05
2024-04-10T03:56:14.437Z,16.50
2024-04-10T03:58:45.396Z,10.27
2024-04-10T04:01:22.195Z,11.13
2024-04-10T04:03:53.378Z,12.43
2024-04-10T04:06:24.386Z,10.60
2024-04-10T04:08:55.429Z,11.40
2024-04-10T04:11:26.510Z,17.38
2024-04-10T04:13:57.600Z,10.98
2024-04-10T04:19:00.018Z,11.60
2024-04-10T04:21:33.612Z,11.60
2024-04-10T04:24:06.382Z,11.93
2024-04-10T04:26:37.276Z,11.38
2024-04-10T04:29:08.320Z,12.27
2024-04-10T04:31:39.208Z,12.93
2024-04-10T04:34:15.340Z,12.98
2024-04-10T04:36:47.582Z,12.25
2024-04-10T04:41:48.617Z,11.52
2024-04-10T04:44:22.390Z,12.50
2024-04-10T04:49:25.687Z,11.77
2024-04-10T04:51:57.210Z,12.48
2024-04-10T04:54:28.357Z,16.40
2024-04-10T04:56:59.357Z,12.75
2024-04-10T04:59:30.324Z,14.33
2024-04-10T05:02:01.337Z,12.77
2024-04-10T05:04:50.590Z,13.98
2024-04-10T05:07:25.501Z,13.77
2024-04-10T05:09:58.374Z,13.82
2024-04-10T05:12:29.318Z,14.75
2024-04-10T05:15:01.849Z,15.40
2024-04-10T05:17:37.226Z,17.42
2024-04-10T05:20:15.546Z,14.23
2024-04-10T05:22:48.917Z,14.77
2024-04-10T05:25:20.059Z,14.73
2024-04-10T05:27:51.723Z,14.50
2024-04-10T05:30:23.084Z,13.65
2024-04-10T05:32:54.298Z,14.65
2024-04-10T05:35:25.422Z,14.27
2024-04-10T05:37:56.396Z,15.20
2024-04-10T05:40:27.836Z,14.40
2024-04-10T05:42:58.805Z,14.68
2024-04-10T05:45:29.752Z,14.38
2024-04-10T05:48:00.898Z,14.73
2024-04-10T05:50:32.791Z,15.30
2024-04-10T05:53:04.936Z,13.98
2024-04-10T05:55:37.323Z,14.23
2024-04-10T05:58:10.734Z,14.07
2024-04-10T06:00:41.728Z,14.43
2024-04-10T06:03:16.280Z,14.90
2024-04-10T06:05:47.492Z,15.30
2024-04-10T06:08:18.195Z,13.85
2024-04-10T06:10:54.282Z,15.17
2024-04-10T06:13:25.057Z,13.68
2024-04-10T06:16:03.305Z,15.50
2024-04-10T06:18:35.091Z,14.43
2024-04-10T06:21:07.128Z,14.85
2024-04-10T06:23:38.256Z,15.20
2024-04-10T06:26:09.274Z,14.93
2024-04-10T06:28:40.455Z,14.88
2024-04-10T06:31:11.699Z,14.98
2024-04-10T06:33:42.796Z,14.38
2024-04-10T06:36:13.628Z,14.90
2024-04-10T06:38:46.702Z,15.70
2024-04-10T06:41:17.708Z,14.40
2024-04-10T06:43:48.344Z,15.27
2024-04-10T06:46:19.521Z,14.93
2024-04-10T06:48:51.024Z,14.85
2024-04-10T06:51:22.471Z,15.27
2024-04-10T06:53:53.566Z,15.30
2024-04-10T06:56:25.788Z,13.68
2024-04-10T06:58:57.345Z,14.50
2024-04-10T07:01:28.224Z,14.20
2024-04-10T07:03:59.255Z,14.63
2024-04-10T07:06:30.290Z,13.75
2024-04-10T07:09:01.066Z,14.70
2024-04-10T07:11:33.851Z,15.17
2024-04-10T07:14:09.199Z,14.38
2024-04-10T07:19:11.405Z,13.90
2024-04-10T07:21:42.475Z,14.10
2024-04-10T07:24:13.394Z,13.95
2024-04-10T07:26:45.010Z,14.50
2024-04-10T07:29:19.855Z,13.70
2024-04-10T07:31:50.639Z,15.52
2024-04-10T07:34:22.780Z,13.65
2024-04-10T07:36:53.827Z,13.77
2024-04-10T07:39:24.768Z,13.82
2024-04-10T07:41:55.774Z,13.73
2024-04-10T07:44:26.734Z,13.82
2024-04-10T07:46:58.578Z,14.03
2024-04-10T07:49:30.693Z,13.80
2024-04-10T07:52:02.505Z,14.15
2024-04-10T07:54:35.438Z,12.90
2024-04-10T07:57:07.231Z,12.75
2024-04-10T07:59:39.157Z,13.38
2024-04-10T08:02:10.348Z,12.75
2024-04-10T08:04:41.427Z,12.93
2024-04-10T08:07:12.272Z,12.80
2024-04-10T08:09:43.496Z,13.18
2024-04-10T08:12:20.951Z,11.70
2024-04-10T08:14:55.078Z,12.27
2024-04-10T08:17:28.009Z,13.05
2024-04-10T08:19:59.424Z,12.52
2024-04-10T08:22:34.960Z,12.10
2024-04-10T08:25:06.123Z,11.60
2024-04-10T08:27:37.091Z,12.05
2024-04-10T08:30:08.554Z,11.85
2024-04-10T08:32:39.909Z,11.65
2024-04-10T08:35:12.728Z,12.10
2024-04-10T08:37:43.719Z,10.68
2024-04-10T08:41:01.032Z,10.80
2024-04-10T08:43:37.597Z,10.75
2024-04-10T08:46:11.324Z,10.57
2024-04-10T08:48:45.973Z,11.63
2024-04-10T08:51:37.433Z,11.13
2024-04-10T08:54:11.096Z,10.80
2024-04-10T08:56:41.992Z,10.80
2024-04-10T08:59:12.957Z,10.77
2024-04-10T09:01:48.203Z,9.75
2024-04-10T09:04:25.343Z,11.27
2024-04-10T09:07:06.394Z,11.00
2024-04-10T09:09:37.492Z,10.82
2024-04-10T09:12:08.708Z,10.43
2024-04-10T09:17:12.084Z,10.48
2024-04-10T09:19:47.023Z,12.27
2024-04-10T09:22:19.438Z,14.30
2024-04-10T09:24:50.834Z,16.08
2024-04-10T09:27:21.892Z,13.98
2024-04-10T09:30:02.245Z,13.45
2024-04-10T09:32:38.980Z,13.20
2024-04-10T09:35:11.719Z,22.65
2024-04-10T09:37:46.635Z,22.33
2024-04-10T09:40:26.411Z,17.25
2024-04-10T09:43:05.348Z,19.45
2024-04-10T09:45:38.045Z,16.00
2024-04-10T09:48:14.980Z,16.58
2024-04-10T09:50:48.690Z,15.15
2024-04-10T09:53:21.747Z,18.80
2024-04-10T09:55:55.494Z,14.63
2024-04-10T09:58:26.563Z,16.38
2024-04-10T10:00:57.716Z,14.88
2024-04-10T10:03:29.292Z,17.08
2024-04-10T10:06:06.220Z,14.63
2024-04-10T10:08:38.053Z,15.50
2024-04-10T10:11:11.419Z,18.65
2024-04-10T10:13:44.960Z,14.45
2024-04-10T10:16:28.279Z,15.02
2024-04-10T10:19:07.231Z,17.35
2024-04-10T10:21:38.285Z,16.35
2024-04-10T10:24:09.984Z,15.43
2024-04-10T10:26:41.163Z,17.08
2024-04-10T10:29:15.797Z,15.85
2024-04-10T10:31:48.177Z,15.68
2024-04-10T10:34:25.785Z,15.32
2024-04-10T10:36:57.414Z,15.48
2024-04-10T10:39:29.782Z,16.27
2024-04-10T10:42:08.420Z,15.68
2024-04-10T10:44:39.237Z,15.40
2024-04-10T10:47:12.242Z,15.50
2024-04-10T10:49:43.480Z,15.57
2024-04-10T10:52:14.040Z,15.77
2024-04-10T10:54:45.179Z,15.60
2024-04-10T10:57:19.657Z,15.35
2024-04-10T10:59:50.358Z,23.95
2024-04-10T11:02:22.852Z,16.83
2024-04-10T11:04:54.593Z,14.48
2024-04-10T11:10:07.253Z,15.20
2024-04-10T11:12:39.638Z,39.67
2024-04-10T11:15:13.212Z,30.33
2024-04-10T11:17:44.207Z,30.23
2024-04-10T11:20:18.604Z,20.13
2024-04-10T11:25:20.147Z,34.38
2024-04-10T11:27:55.509Z,34.78
2024-04-10T11:30:33.517Z,21.45
2024-04-10T11:33:10.008Z,16.58
2024-04-10T11:35:42.276Z,14.85
2024-04-10T11:38:13.261Z,14.88
2024-04-10T11:40:47.585Z,10.73
2024-04-10T11:43:44.758Z,11.73
2024-04-10T11:46:26.886Z,11.35
2024-04-10T11:48:57.927Z,19.05
2024-04-10T11:51:33.537Z,11.40
2024-04-10T11:54:15.211Z,13.95
2024-04-10T11:56:57.870Z,14.90
2024-04-10T11:59:29.222Z,13.45
2024-04-10T12:04:38.683Z,23.85
2024-04-10T12:07:14.544Z,13.85
2024-04-10T12:09:48.403Z,13.32
2024-04-10T12:12:28.526Z,17.10
2024-04-10T12:15:11.039Z,11.48
2024-04-10T12:17:51.318Z,12.65
2024-04-10T12:20:30.283Z,14.88
2024-04-10T12:23:00.950Z,22.00
2024-04-10T12:25:32.425Z,15.27
2024-04-10T12:28:04.689Z,15.98
2024-04-10T12:30:35.592Z,16.58
2024-04-10T12:33:06.802Z,19.10
2024-04-10T12:38:28.151Z,24.83
2024-04-10T12:41:02.872Z,14.60
2024-04-10T12:43:33.945Z,16.15
2024-04-10T12:46:05.905Z,23.48
2024-04-10T12:48:37.038Z,19.58
2024-04-10T12:51:07.869Z,16.20
2024-04-10T12:53:47.790Z,14.00
2024-04-10T12:56:20.280Z,13.15
2024-04-10T12:58:51.501Z,14.80
2024-04-10T13:01:22.573Z,13.45
2024-04-10T13:03:59.125Z,12.95
2024-04-10T13:06:30.272Z,16.95
2024-04-10T13:09:01.862Z,12.93
2024-04-10T13:11:33.325Z,11.88
2024-04-10T13:14:04.944Z,11.80
2024-04-10T13:16:36.482Z,14.82
2024-04-10T13:19:10.329Z,33.15
2024-04-10T13:21:41.441Z,28.80
2024-04-10T13:24:12.413Z,23.03
2024-04-10T13:26:44.350Z,21.05
2024-04-10T13:29:15.284Z,11.65
2024-04-10T13:31:46.706Z,16.70
2024-04-10T13:34:18.068Z,11.25
2024-04-10T13:36:49.665Z,10.75
2024-04-10T13:39:20.880Z,10.68
2024-04-10T13:41:51.915Z,10.32
2024-04-10T13:44:25.609Z,9.82
2024-04-10T13:46:57.704Z,12.25
2024-04-10T13:49:29.244Z,9.68
2024-04-10T13:52:00.083Z,10.20
2024-04-10T13:54:36.981Z,9.73
2024-04-10T13:57:10.438Z,11.52
2024-04-10T13:59:41.440Z,9.57
2024-04-10T14:02:12.743Z,9.87
2024-04-10T14:04:43.713Z,12.65
2024-04-10T14:07:16.807Z,12.48
2024-04-10T14:09:47.637Z,12.93
2024-04-10T14:12:18.571Z,13.73
2024-04-10T14:14:51.139Z,11.15
2024-04-10T14:17:27.160Z,10.77
2024-04-10T14:20:01.625Z,12.73
2024-04-10T14:22:32.481Z,15.60
2024-04-10T14:25:03.418Z,12.77
2024-04-10T14:27:35.094Z,13.85
2024-04-10T14:30:06.549Z,10.75
2024-04-10T14:32:38.002Z,13.23
2024-04-10T14:35:11.113Z,11.43
2024-04-10T14:37:42.688Z,10.23
2024-04-10T14:40:16.391Z,10.82
2024-04-10T14:42:48.347Z,14.93
2024-04-10T14:45:19.546Z,17.08
2024-04-10T14:47:51.374Z,19.75
2024-04-10T14:50:23.504Z,13.25
2024-04-10T14:52:54.970Z,10.80
2024-04-10T14:55:26.319Z,10.10
2024-04-10T14:57:59.034Z,11.13
2024-04-10T15:00:37.421Z,28.63
2024-04-10T15:03:08.867Z,11.35
2024-04-10T15:05:39.971Z,19.27
2024-04-10T15:08:11.209Z,11.10
2024-04-10T15:10:44.186Z,10.33
2024-04-10T15:13:15.809Z,10.55
2024-04-10T15:18:28.396Z,15.15
2024-04-10T15:21:03.771Z,10.82
2024-04-10T15:23:34.836Z,11.18
2024-04-10T15:26:06.509Z,10.23
2024-04-10T15:31:14.750Z,10.25
2024-04-10T15:33:45.979Z,11.38
2024-04-10T15:36:16.978Z,10.18
2024-04-10T15:38:49.960Z,10.25
2024-04-10T15:41:21.878Z,9.18
2024-04-10T15:43:53.739Z,9.82
2024-04-10T15:46:25.509Z,9.60
2024-04-10T15:48:59.153Z,9.48
2024-04-10T15:51:31.585Z,9.27
2024-04-10T15:54:02.689Z,11.80
2024-04-10T15:56:34.076Z,8.87
2024-04-10T15:59:05.527Z,9.95
2024-04-10T16:01:36.573Z,7.53
2024-04-10T16:04:11.921Z,11.77
2024-04-10T16:06:45.858Z,7.63
2024-04-10T16:09:17.265Z,8.05
2024-04-10T16:11:49.559Z,8.35
2024-04-10T16:14:22.641Z,9.05
2024-04-10T16:16:57.135Z,9.00
2024-04-10T16:19:28.069Z,8.40
2024-04-10T16:21:58.972Z,8.50
2024-04-10T16:24:36.082Z,7.90
2024-04-10T16:27:07.502Z,8.30
2024-04-10T16:29:39.376Z,8.68
2024-04-10T16:32:10.632Z,8.13
2024-04-10T16:34:42.058Z,8.77
2024-04-10T16:37:13.327Z,9.98
2024-04-10T16:39:44.382Z,11.15
2024-04-10T16:42:15.327Z,8.77
2024-04-10T16:44:52.936Z,8.70
2024-04-10T16:47:23.796Z,8.32
2024-04-10T16:49:55.214Z,9.25
2024-04-10T16:52:28.786Z,9.53
2024-04-10T16:55:00.485Z,8.90
2024-04-10T16:57:31.759Z,8.32
2024-04-10T17:00:05.336Z,8.10
2024-04-10T17:02:37.667Z,8.23
2024-04-10T17:05:09.398Z,8.50
2024-04-10T17:07:40.358Z,9.00
2024-04-10T17:10:11.457Z,7.80
2024-04-10T17:12:42.537Z,8.43
2024-04-10T17:15:13.636Z,8.93
2024-04-10T17:18:02.845Z,8.70
2024-04-10T17:20:52.382Z,7.65
2024-04-10T17:23:23.162Z,7.82
2024-04-10T17:26:00.498Z,8.00
2024-04-10T17:28:31.654Z,7.80
2024-04-10T17:31:07.988Z,8.27
2024-04-10T17:33:39.063Z,8.15
2024-04-10T17:36:14.328Z,7.85
2024-04-10T17:38:45.215Z,7.60
2024-04-10T17:41:16.388Z,8.18
2024-04-10T17:43:47.427Z,8.23
2024-04-10T17:46:18.825Z,8.30
2024-04-10T17:48:49.604Z,8.35
2024-04-10T17:51:20.677Z,7.93
2024-04-10T17:53:51.272Z,8.32
2024-04-10T17:56:22.217Z,7.50
2024-04-10T17:58:52.998Z,7.97
2024-04-10T18:01:23.672Z,8.10
2024-04-10T18:03:55.565Z,7.95
2024-04-10T18:06:27.749Z,7.22
2024-04-10T18:09:01.430Z,8.13
2024-04-10T18:11:32.541Z,7.90
2024-04-10T18:14:03.222Z,7.70
2024-04-10T18:19:09.072Z,7.63
2024-04-10T18:21:40.141Z,7.32
2024-04-10T18:24:11.375Z,8.30
2024-04-10T18:26:42.480Z,8.47
2024-04-10T18:29:14.487Z,7.20
2024-04-10T18:31:45.582Z,7.65
2024-04-10T18:34:18.341Z,7.72
2024-04-10T18:36:49.250Z,7.25
2024-04-10T18:39:20.097Z,7.73
2024-04-10T18:41:50.949Z,6.85
2024-04-10T18:44:21.875Z,7.63
2024-04-10T18:46:53.064Z,8.10
2024-04-10T18:49:30.003Z,8.50
2024-04-10T18:52:01.360Z,7.32
2024-04-10T18:54:34.038Z,7.30
2024-04-10T18:57:05.430Z,8.18
2024-04-10T18:59:36.270Z,7.65
2024-04-10T19:02:10.686Z,7.15
2024-04-10T19:04:41.473Z,7.72
2024-04-10T19:07:12.443Z,8.48
2024-04-10T19:09:43.220Z,7.80
2024-04-10T19:12:13.867Z,8.40
2024-04-10T19:14:44.892Z,8.73
2024-04-10T19:17:16.962Z,7.50
2024-04-10T19:22:17.595Z,8.02
2024-04-10T19:24:50.353Z,10.70
2024-04-10T19:27:21.327Z,7.75
2024-04-10T19:29:52.183Z,8.05
2024-04-10T19:32:23.666Z,8.40
2024-04-10T19:34:54.288Z,10.73
2024-04-10T19:37:24.926Z,7.25
2024-04-10T19:39:56.592Z,8.40
2024-04-10T19:42:28.549Z,7.63
2024-04-10T19:44:59.450Z,7.53
2024-04-10T19:47:30.287Z,8.13
2024-04-10T19:50:01.122Z,8.07
2024-04-10T19:52:31.851Z,9.88
2024-04-10T19:55:02.237Z,8.48
2024-04-10T19:57:32.795Z,7.95
2024-04-10T20:00:03.466Z,7.85
2024-04-10T20:02:42.365Z,8.68
2024-04-10T20:05:18.121Z,7.90
2024-04-10T20:07:49.746Z,8.40
2024-04-10T20:10:20.741Z,7.95
2024-04-10T20:12:51.746Z,8.98
2024-04-10T20:15:22.817Z,8.15
2024-04-10T20:17:53.500Z,8.48
2024-04-10T20:20:24.690Z,11.03
2024-04-10T20:22:55.100Z,9.15
2024-04-10T20:25:25.831Z,8.85
2024-04-10T20:27:56.346Z,9.40
2024-04-10T20:30:27.316Z,10.60
2024-04-10T20:32:58.522Z,7.83
2024-04-10T20:35:29.592Z,7.97
2024-04-10T20:38:00.511Z,8.20
2024-04-10T20:40:31.185Z,8.73
2024-04-10T20:43:09.727Z,8.35
2024-04-10T20:45:40.387Z,7.85
2024-04-10T20:48:10.890Z,8.30
2024-04-10T20:50:41.704Z,7.18
2024-04-10T20:53:12.258Z,8.10
2024-04-10T20:55:42.999Z,8.85
2024-04-10T20:58:13.846Z,9.05
2024-04-10T21:00:44.741Z,8.05
2024-04-10T21:03:15.492Z,8.73
2024-04-10T21:05:53.859Z,8.15
2024-04-10T21:08:43.721Z,7.50
2024-04-10T21:11:34.010Z,8.43
2024-04-10T21:14:23.964Z,10.45
2024-04-10T21:17:12.889Z,8.80
2024-04-10T21:20:01.961Z,8.45
2024-04-10T21:22:51.036Z,8.13
2024-04-10T21:25:49.223Z,8.93
2024-04-10T21:28:39.520Z,8.73
2024-04-10T21:31:29.078Z,7.90
2024-04-10T21:34:18.684Z,9.38
2024-04-10T21:37:08.997Z,8.95
2024-04-10T21:39:57.828Z,10.43
2024-04-10T21:42:46.851Z,8.65
2024-04-10T21:45:35.740Z,9.45
2024-04-10T21:48:25.418Z,8.65
2024-04-10T21:51:19.850Z,8.00
2024-04-10T21:54:10.032Z,8.27
2024-04-10T21:56:59.187Z,11.88
2024-04-10T21:59:53.601Z,8.82
2024-04-10T22:02:50.104Z,10.05
2024-04-10T22:05:39.584Z,12.70
2024-04-10T22:08:28.440Z,10.43
2024-04-10T22:10:59.397Z,9.57
2024-04-10T22:13:30.611Z,9.35
2024-04-10T22:16:02.835Z,18.73
2024-04-10T22:18:51.748Z,9.25
2024-04-10T22:21:54.397Z,9.45
2024-04-10T22:24:26.153Z,9.57
2024-04-10T22:26:58.634Z,10.45
2024-04-10T22:29:30.154Z,9.45
2024-04-10T22:32:00.984Z,9.77
2024-04-10T22:34:32.508Z,9.07
2024-04-10T22:37:06.421Z,10.07
2024-04-10T22:39:45.224Z,11.65
2024-04-10T22:42:16.590Z,9.10
2024-04-10T22:44:52.086Z,9.48
2024-04-10T22:47:23.065Z,9.93
2024-04-10T22:49:56.083Z,10.30
2024-04-10T22:52:26.883Z,10.35
2024-04-10T22:54:57.571Z,9.15
2024-04-10T22:57:28.473Z,10.45
2024-04-10T22:59:59.154Z,10.38
2024-04-10T23:02:30.179Z,10.52
2024-04-10T23:05:16.578Z,11.52
2024-04-10T23:08:25.633Z,10.85
2024-04-10T23:10:45.520Z,12.43
2024-04-10T23:13:16.600Z,17.88
2024-04-10T23:15:47.212Z,16.97
2024-04-10T23:18:25.903Z,13.07
2024-04-10T23:21:08.263Z,13.57
2024-04-10T23:23:41.263Z,18.70
2024-04-10T23:26:11.785Z,26.48
2024-04-10T23:28:42.280Z,34.28
2024-04-10T23:31:13.354Z,35.80
2024-04-10T23:33:44.206Z,30.63
2024-04-10T23:36:15.383Z,27.73
2024-04-10T23:38:46.116Z,27.35
2024-04-10T23:41:17.084Z,20.23
2024-04-10T23:43:51.965Z,30.33
2024-04-10T23:46:22.893Z,26.85
2024-04-10T23:48:53.752Z,19.58
2024-04-10T23:51:24.351Z,32.20
2024-04-10T23:53:55.291Z,23.95
2024-04-10T23:56:25.938Z,20.42
2024-04-10T23:58:57.215Z,27.05
